Accueil
METAR-TAF:

METAR-TAF

Aéroports :

Sapporo, Japon

latitude: 43-07N, longitude: 141-23E, altitude: 8 m

Observation

Le bulletin a été fait il y a 10 heures et 9 minutes, à 11:00 UTC
Vent 2 kt de sud-est
Température 4°C
Humidité 65%
Pression 1016 hPa
Visibilité 10 km ou plus
Quelques nuages à une hauteur de 3000 ft
Nuages épars à une hauteur de 15000 ft

METAR: RJCO 031100Z 13002KT 9999 FEW030 SCT150 04/M02 Q1016

Heure: 06:09 (21:09 UTC)


TAF: absent

Observations et prévisions météorologiques de plus de 4000 aéroports (messages METAR et TAF).

Les stations disponibles sont représentées par des disques jaunes et rouges sur la carte.

Passer la souris dessus pour voir le nom de la station.

Cliquer dessus pour voir les observations et prévisions météorologiques.

Pour changer de carte: cliquez sur les boutons verts avec une croix noire pour zoomer, sur le bouton vert avec un tiret pour effectuer un zoom arrière, ou sur les flèches vertes pour les cartes adjacentes.


METAR-TAF: